Portada
METAR-TAF:

METAR-TAF

Aeroports :

Dakar, Senegal

latitud: 14-44N, longitud: 017-30W, altitud: 27 m

Observació

L'informe es va fer fa 1 hora i 1 minuts, a les 18:00 UTC
Vent 16 kt del Nord
Temperatura 23°C
Humitat 73%
Pressió 1011 hPa
Visibilitat 10 km o més
sense núvols per sota de 1500 mi sense presència de cumulonimbus.

METAR: GOOY 291800Z 36016KT CAVOK 23/18 Q1011

Hora: 19:01 (19:01 UTC)

Pronòstic

L'informe es va fer fa 1 hora i 31 minuts, a les 17:30 UTC
Pronòstic vàlid del 29 a les 18 UTC al 30 a les 24 UTC
Vent 14 kt del Nord
Visibilitat 10 km o més
sense núvols per sota de 1500 mi sense presència de cumulonimbus.

TAF: GOOY 291730Z 2918/3024 36014KT CAVOK

Observacions i pronòstics meteorològics de més de 4000 aeroports (METAR i TAF).

Les estacions disponibles són els punts grocs i vermells al mapa.

Posi el ratolí al punt desitjat per veure el nom de l'estació.

Feu clic per veure les observacions i els pronòstics meteorològics.

Per canviar el mapa: feu clic els botons verds amb una creu de color negre per apropar; al botó verd amb un guió per allunyar la imatge; o en les fletxes verdes per a mapes adjacents.


METAR-TAF: